首页
METAR-TAF:

METAR-TAF

机场 :

Bellaire, 密歇根州, 美国

纬度: 44-59-18N, 经度: 085-11-54W, 海拔: 190米

当前天气观测

该预报发布于31分钟前的08:15 UTC
风速5节,风向
温度 -10°C
湿度 85%
气压 1033 hPa
能見度: 16.1公里
多云层高于2000英尺

METAR: KACB 120815Z AUTO 19005KT 10SM BKN020 M10/M12 A3049 RMK AO2 T10981125

时间: 03:46 (08:46 UTC)


TAF: 丢失

超过4000个机场的气象观测和天气预报(METAR&TAF报告)。

可查询的气象台以黄色和红色小点在地图上表示。

将鼠标移到小点上方,可查看气象台名称。

然后点击查看天气观测和预报。

如需切换地图:点击带黑十字的绿色按钮放大地图;点击带横线的绿色按钮缩小地图;或者点击绿色箭头查看邻近地区的地图。


METAR-TAF: